Time,TemperatureF,DewpointF,PressureIn,WindDirection,WindDirectionDegrees,WindSpeedMPH,WindSpeedGustMPH,Humidity,HourlyPrecipIn,Conditions,Clouds,dailyrainin,SoftwareType,DateUTC
2013-09-24 00:00:00,40.9,39.6,30.11,NW,319,0.0,0.0,95,0.00,,---,0.00,VWS V14.01,2013-09-24 04:00:00,
2013-09-24 00:10:00,41.0,39.7,30.11,NW,319,0.0,0.0,95,0.00,,---,0.00,VWS V14.01,2013-09-24 04:10:00,
2013-09-24 00:20:00,40.9,39.6,30.11,NW,319,0.0,0.0,95,0.00,,---,0.00,VWS V14.01,2013-09-24 04:20:00,
2013-09-24 00:30:00,40.4,39.1,30.11,NW,319,0.0,0.0,95,0.00,,---,0.00,VWS V14.01,2013-09-24 04:30:00,
2013-09-24 00:40:00,40.1,38.8,30.11,NW,319,0.0,0.0,95,0.00,,---,0.00,VWS V14.01,2013-09-24 04:40:00,
2013-09-24 05:06:00,37.1,36.3,30.09,WSW,244,0.0,0.0,97,0.00,,---,0.00,VWS V14.01,2013-09-24 09:06:00,
2013-09-24 05:07:00,37.1,36.3,30.09,WSW,244,0.0,0.0,97,0.00,,---,0.00,VWS V14.01,2013-09-24 09:07:00,
2013-09-24 05:10:00,37.1,36.3,30.09,WSW,244,0.0,0.0,97,0.00,,---,0.00,VWS V14.01,2013-09-24 09:10:00,
2013-09-24 05:12:00,36.9,36.1,30.09,WSW,244,0.0,0.0,97,0.00,,---,0.00,VWS V14.01,2013-09-24 09:12:00,
2013-09-24 05:17:00,36.8,36.0,30.09,WSW,243,0.0,0.0,97,0.00,,---,0.00,VWS V14.01,2013-09-24 09:17:00,
2013-09-24 05:20:00,36.8,36.0,30.09,WSW,243,0.0,0.0,97,0.00,,---,0.00,VWS V14.01,2013-09-24 09:20:00,
2013-09-24 05:22:00,36.7,35.7,30.09,WSW,244,0.0,0.0,96,0.00,,---,0.00,VWS V14.01,2013-09-24 09:22:00,
2013-09-24 05:27:00,36.7,35.9,30.09,NNW,342,0.0,0.0,97,0.00,,---,0.00,VWS V14.01,2013-09-24 09:27:00,
2013-09-24 05:30:00,36.8,36.0,30.09,NNW,342,0.0,0.0,97,0.00,,---,0.00,VWS V14.01,2013-09-24 09:30:00,
2013-09-24 05:32:00,36.8,36.0,30.09,North,360,0.0,0.0,97,0.00,,---,0.00,VWS V14.01,2013-09-24 09:32:00,
2013-09-24 05:37:00,37.2,36.4,30.09,SSE,156,0.0,0.0,97,0.00,,---,0.00,VWS V14.01,2013-09-24 09:37:00,
2013-09-24 05:40:00,37.0,36.2,30.09,SSE,157,0.0,0.0,97,0.00,,---,0.00,VWS V14.01,2013-09-24 09:40:00,
2013-09-24 05:42:00,36.8,36.0,30.09,SSE,156,0.0,0.0,97,0.00,,---,0.00,VWS V14.01,2013-09-24 09:42:00,
2013-09-24 05:47:00,36.8,36.0,30.09,SSE,156,0.0,0.0,97,0.00,,---,0.00,VWS V14.01,2013-09-24 09:47:00,
2013-09-24 05:50:00,36.8,35.8,30.09,SSE,157,0.0,0.0,96,0.00,,---,0.00,VWS V14.01,2013-09-24 09:50:00,
2013-09-24 05:52:00,36.5,35.5,30.09,SSE,157,0.0,0.0,96,0.00,,---,0.00,VWS V14.01,2013-09-24 09:52:00,
2013-09-24 05:57:00,36.4,35.4,30.09,SSE,157,0.0,0.0,96,0.00,,---,0.00,VWS V14.01,2013-09-24 09:57:00,
2013-09-24 06:00:00,36.4,35.4,30.09,SSE,156,0.0,0.0,96,0.00,,---,0.00,VWS V14.01,2013-09-24 10:00:00,
2013-09-24 06:02:00,36.4,35.4,30.09,SSE,156,0.0,0.0,96,0.00,,---,0.00,VWS V14.01,2013-09-24 10:02:00,
2013-09-24 06:07:00,36.3,35.3,30.09,SSE,157,0.0,0.0,96,0.00,,---,0.00,VWS V14.01,2013-09-24 10:07:00,
2013-09-24 06:10:00,36.3,35.3,30.09,SSE,156,0.0,0.0,96,0.00,,---,0.00,VWS V14.01,2013-09-24 10:10:00,
2013-09-24 06:12:00,36.2,35.2,30.09,SSE,156,0.0,0.0,96,0.00,,---,0.00,VWS V14.01,2013-09-24 10:12:00,
2013-09-24 06:17:00,36.1,35.1,30.09,SSE,157,0.0,0.0,96,0.00,,---,0.00,VWS V14.01,2013-09-24 10:17:00,
2013-09-24 06:20:00,36.1,35.1,30.09,SSE,156,0.0,0.0,96,0.00,,---,0.00,VWS V14.01,2013-09-24 10:20:00,
2013-09-24 06:22:00,36.0,35.0,30.09,SSE,156,0.0,0.0,96,0.00,,---,0.00,VWS V14.01,2013-09-24 10:22:00,
2013-09-24 06:27:00,35.9,34.9,30.09,SSE,156,0.0,0.0,96,0.00,,---,0.00,VWS V14.01,2013-09-24 10:27:00,
2013-09-24 06:30:00,36.0,35.2,30.09,SSE,156,0.0,0.0,97,0.00,,---,0.00,VWS V14.01,2013-09-24 10:30:00,
2013-09-24 06:32:00,36.3,35.5,30.09,SSE,156,0.0,0.0,97,0.00,,---,0.00,VWS V14.01,2013-09-24 10:32:00,
2013-09-24 06:37:00,36.6,35.8,30.09,SSE,157,0.0,0.0,97,0.00,,---,0.00,VWS V14.01,2013-09-24 10:37:00,
2013-09-24 06:40:00,36.6,35.8,30.09,SSE,156,0.0,0.0,97,0.00,,---,0.00,VWS V14.01,2013-09-24 10:40:00,
2013-09-24 06:42:00,36.3,35.5,30.09,SSE,166,0.0,0.0,97,0.00,,---,0.00,VWS V14.01,2013-09-24 10:42:00,
2013-09-24 06:47:00,36.2,35.4,30.09,SSE,165,0.0,0.0,97,0.00,,---,0.00,VWS V14.01,2013-09-24 10:47:00,
2013-09-24 06:50:00,36.1,35.3,30.09,SSE,165,0.0,0.0,97,0.00,,---,0.00,VWS V14.01,2013-09-24 10:50:00,
2013-09-24 06:52:00,36.4,35.6,30.09,SSE,165,0.0,0.0,97,0.00,,---,0.00,VWS V14.01,2013-09-24 10:52:00,
2013-09-24 06:57:00,36.2,35.4,30.09,SSE,165,0.0,0.0,97,0.00,,---,0.00,VWS V14.01,2013-09-24 10:57:00,
2013-09-24 07:00:00,36.1,35.3,30.09,SSE,165,0.0,0.0,97,0.00,,---,0.00,VWS V14.01,2013-09-24 11:00:00,
2013-09-24 07:02:00,36.0,35.2,30.09,SSE,165,0.0,0.0,97,0.00,,---,0.00,VWS V14.01,2013-09-24 11:02:00,
2013-09-24 07:07:00,35.8,35.0,30.10,SSE,166,0.0,0.0,97,0.00,,---,0.00,VWS V14.01,2013-09-24 11:07:00,
2013-09-24 07:10:00,35.8,35.0,30.09,SSE,165,0.0,0.0,97,0.00,,---,0.00,VWS V14.01,2013-09-24 11:10:00,
2013-09-24 07:12:00,35.8,35.0,30.10,SSE,165,0.0,0.0,97,0.00,,---,0.00,VWS V14.01,2013-09-24 11:12:00,
2013-09-24 07:17:00,35.9,35.1,30.10,SSE,166,0.0,0.0,97,0.00,,---,0.00,VWS V14.01,2013-09-24 11:17:00,
2013-09-24 07:20:00,35.9,35.1,30.10,SSE,166,0.0,0.0,97,0.00,,---,0.00,VWS V14.01,2013-09-24 11:20:00,
2013-09-24 07:22:00,35.9,35.1,30.10,SSE,165,0.0,0.0,97,0.00,,---,0.00,VWS V14.01,2013-09-24 11:22:00,
2013-09-24 07:27:00,35.9,35.1,30.10,SSE,149,0.0,0.0,97,0.00,,---,0.00,VWS V14.01,2013-09-24 11:27:00,
2013-09-24 07:30:00,35.9,35.1,30.10,SSE,150,0.0,0.0,97,0.00,,---,0.00,VWS V14.01,2013-09-24 11:30:00,
2013-09-24 07:32:00,36.0,35.2,30.10,SSE,151,0.0,0.0,97,0.00,,---,0.00,VWS V14.01,2013-09-24 11:32:00,
2013-09-24 07:37:00,36.0,35.2,30.10,SSE,150,0.0,0.0,97,0.00,,---,0.00,VWS V14.01,2013-09-24 11:37:00,
2013-09-24 07:40:00,36.1,35.3,30.10,SSE,150,0.0,0.0,97,0.00,,---,0.00,VWS V14.01,2013-09-24 11:40:00,
2013-09-24 07:42:00,36.1,35.3,30.11,SSE,150,0.0,0.0,97,0.00,,---,0.00,VWS V14.01,2013-09-24 11:42:00,
2013-09-24 07:47:00,36.3,35.5,30.10,SSE,150,0.0,0.0,97,0.00,,---,0.00,VWS V14.01,2013-09-24 11:47:00,
2013-09-24 07:50:00,36.3,35.5,30.10,SSE,151,0.0,0.0,97,0.00,,---,0.00,VWS V14.01,2013-09-24 11:50:00,
2013-09-24 07:52:00,36.6,35.8,30.10,SSE,150,0.0,0.0,97,0.00,,---,0.00,VWS V14.01,2013-09-24 11:52:00,
2013-09-24 07:57:00,36.9,36.1,30.10,SSE,150,0.0,0.0,97,0.00,,---,0.00,VWS V14.01,2013-09-24 11:57:00,
2013-09-24 08:00:00,37.0,36.2,30.10,SSE,150,0.0,0.0,97,0.00,,---,0.00,VWS V14.01,2013-09-24 12:00:00,
2013-09-24 08:02:00,37.5,36.7,30.10,SSE,151,0.0,0.0,97,0.00,,---,0.00,VWS V14.01,2013-09-24 12:02:00,
2013-09-24 08:07:00,38.5,37.7,30.11,SSE,150,0.0,0.0,97,0.00,,---,0.00,VWS V14.01,2013-09-24 12:07:00,
2013-09-24 08:10:00,38.9,38.1,30.11,SSE,150,0.0,0.0,97,0.00,,---,0.00,VWS V14.01,2013-09-24 12:10:00,
2013-09-24 08:12:00,40.3,39.5,30.11,SSE,150,0.0,0.0,97,0.00,,---,0.00,VWS V14.01,2013-09-24 12:12:00,
2013-09-24 08:17:00,40.6,39.8,30.11,SSE,149,0.0,0.0,97,0.00,,---,0.00,VWS V14.01,2013-09-24 12:17:00,
2013-09-24 08:20:00,40.6,39.8,30.11,SSE,150,0.0,0.0,97,0.00,,---,0.00,VWS V14.01,2013-09-24 12:20:00,
2013-09-24 08:22:00,40.9,40.1,30.11,SSE,160,0.0,0.0,97,0.00,,---,0.00,VWS V14.01,2013-09-24 12:22:00,
2013-09-24 08:27:00,41.3,40.5,30.10,SSE,161,0.0,0.0,97,0.00,,---,0.00,VWS V14.01,2013-09-24 12:27:00,
2013-09-24 08:30:00,41.5,40.7,30.10,SSE,161,0.0,0.0,97,0.00,,---,0.00,VWS V14.01,2013-09-24 12:30:00,
2013-09-24 08:32:00,41.5,40.7,30.10,SW,221,0.0,0.0,97,0.00,,---,0.00,VWS V14.01,2013-09-24 12:32:00,
2013-09-24 08:37:00,41.9,40.8,30.10,SSW,193,0.0,0.0,96,0.00,,---,0.00,VWS V14.01,2013-09-24 12:37:00,
2013-09-24 08:40:00,42.1,41.0,30.10,SSW,193,0.0,0.0,96,0.00,,---,0.00,VWS V14.01,2013-09-24 12:40:00,
2013-09-24 08:42:00,43.4,42.3,30.10,SSW,192,0.0,0.0,96,0.00,,---,0.00,VWS V14.01,2013-09-24 12:42:00,
2013-09-24 08:47:00,44.8,43.7,30.10,SSW,194,0.0,0.0,96,0.00,,---,0.00,VWS V14.01,2013-09-24 12:47:00,
2013-09-24 08:50:00,45.1,44.0,30.10,SSW,194,0.0,0.0,96,0.00,,---,0.00,VWS V14.01,2013-09-24 12:50:00,
2013-09-24 08:52:00,45.8,43.9,30.10,SSW,194,0.0,0.0,93,0.00,,---,0.00,VWS V14.01,2013-09-24 12:52:00,
2013-09-24 08:57:00,46.7,44.2,30.10,South,191,0.0,0.0,91,0.00,,---,0.00,VWS V14.01,2013-09-24 12:57:00,
2013-09-24 09:00:00,46.9,44.1,30.10,SSW,192,0.0,0.0,90,0.00,,---,0.00,VWS V14.01,2013-09-24 13:00:00,
2013-09-24 09:02:00,47.3,43.9,30.10,SSW,192,0.0,0.0,88,0.00,,---,0.00,VWS V14.01,2013-09-24 13:02:00,
2013-09-24 09:07:00,47.8,44.1,30.11,SSE,152,0.0,0.0,87,0.00,,---,0.00,VWS V14.01,2013-09-24 13:07:00,
2013-09-24 09:10:00,47.9,43.9,30.11,South,175,0.0,1.0,86,0.00,,---,0.00,VWS V14.01,2013-09-24 13:10:00,
2013-09-24 09:12:00,47.9,43.6,30.10,SSW,198,0.0,0.0,85,0.00,,---,0.00,VWS V14.01,2013-09-24 13:12:00,
2013-09-24 09:17:00,48.4,43.8,30.10,South,169,0.0,0.0,84,0.00,,---,0.00,VWS V14.01,2013-09-24 13:17:00,
2013-09-24 09:20:00,48.4,43.8,30.10,SSW,192,0.0,0.0,84,0.00,,---,0.00,VWS V14.01,2013-09-24 13:20:00,
2013-09-24 09:22:00,48.6,44.0,30.10,SW,219,0.0,0.0,84,0.00,,---,0.00,VWS V14.01,2013-09-24 13:22:00,
2013-09-24 09:27:00,49.4,44.8,30.10,SSE,165,0.0,0.0,84,0.00,,---,0.00,VWS V14.01,2013-09-24 13:27:00,
2013-09-24 09:30:00,49.5,44.6,30.10,South,179,0.0,0.0,83,0.00,,---,0.00,VWS V14.01,2013-09-24 13:30:00,
2013-09-24 09:32:00,49.9,45.3,30.10,SSE,148,0.0,0.0,84,0.00,,---,0.00,VWS V14.01,2013-09-24 13:32:00,
2013-09-24 09:37:00,50.6,45.6,30.10,SSE,161,0.0,1.0,83,0.00,,---,0.00,VWS V14.01,2013-09-24 13:37:00,
2013-09-24 09:40:00,50.7,45.7,30.10,SSE,164,0.0,1.0,83,0.00,,---,0.00,VWS V14.01,2013-09-24 13:40:00,
2013-09-24 09:42:00,51.3,45.7,30.10,SSW,198,0.0,0.0,81,0.00,,---,0.00,VWS V14.01,2013-09-24 13:42:00,
2013-09-24 09:47:00,51.7,46.1,30.10,SE,127,0.0,0.0,81,0.00,,---,0.00,VWS V14.01,2013-09-24 13:47:00,
2013-09-24 09:50:00,51.7,45.7,30.10,SSE,153,0.0,0.0,80,0.00,,---,0.00,VWS V14.01,2013-09-24 13:50:00,
2013-09-24 09:52:00,52.1,46.1,30.10,SSE,159,0.0,0.0,80,0.00,,---,0.00,VWS V14.01,2013-09-24 13:52:00,
2013-09-24 09:57:00,53.2,46.9,30.10,SE,143,0.0,1.0,79,0.00,,---,0.00,VWS V14.01,2013-09-24 13:57:00,
2013-09-24 10:00:00,53.3,47.0,30.10,SE,142,0.0,1.0,79,0.00,,---,0.00,VWS V14.01,2013-09-24 14:00:00,
2013-09-24 10:02:00,53.8,46.8,30.10,SE,134,0.0,0.0,77,0.00,,---,0.00,VWS V14.01,2013-09-24 14:02:00,
2013-09-24 10:07:00,54.5,47.5,30.10,SE,126,0.0,0.0,77,0.00,,---,0.00,VWS V14.01,2013-09-24 14:07:00,
2013-09-24 10:10:00,54.5,47.1,30.10,SE,126,0.0,0.0,76,0.00,,---,0.00,VWS V14.01,2013-09-24 14:10:00,
2013-09-24 10:12:00,55.1,48.0,30.10,ESE,121,0.0,0.0,77,0.00,,---,0.00,VWS V14.01,2013-09-24 14:12:00,
2013-09-24 10:17:00,55.7,47.9,30.10,SSE,157,0.0,0.0,75,0.00,,---,0.00,VWS V14.01,2013-09-24 14:17:00,
2013-09-24 10:20:00,55.8,47.7,30.10,SSE,159,0.0,0.0,74,0.00,,---,0.00,VWS V14.01,2013-09-24 14:20:00,
2013-09-24 10:22:00,56.3,47.4,30.10,SE,140,0.0,0.0,72,0.00,,---,0.00,VWS V14.01,2013-09-24 14:22:00,
2013-09-24 10:27:00,56.2,47.3,30.10,SE,138,0.0,1.0,72,0.00,,---,0.00,VWS V14.01,2013-09-24 14:27:00,
2013-09-24 10:30:00,56.2,47.7,30.10,SE,138,0.0,1.0,73,0.00,,---,0.00,VWS V14.01,2013-09-24 14:30:00,
2013-09-24 10:32:00,56.6,47.7,30.10,SE,134,0.0,0.0,72,0.00,,---,0.00,VWS V14.01,2013-09-24 14:32:00,
2013-09-24 10:38:00,57.1,47.4,30.09,SSE,157,0.0,1.0,70,0.00,,---,0.00,VWS V14.01,2013-09-24 14:38:00,
2013-09-24 10:40:00,57.1,47.4,30.09,SE,142,0.0,1.0,70,0.00,,---,0.00,VWS V14.01,2013-09-24 14:40:00,
2013-09-24 10:43:00,57.4,47.3,30.09,SSE,168,0.0,1.0,69,0.00,,---,0.00,VWS V14.01,2013-09-24 14:43:00,
2013-09-24 10:48:00,58.1,48.0,30.10,SSE,156,0.0,2.0,69,0.00,,---,0.00,VWS V14.01,2013-09-24 14:48:00,
2013-09-24 10:50:00,58.2,48.1,30.10,South,190,1.0,2.0,69,0.00,,---,0.00,VWS V14.01,2013-09-24 14:50:00,
2013-09-24 10:53:00,58.3,47.8,30.09,WSW,242,0.0,1.0,68,0.00,,---,0.00,VWS V14.01,2013-09-24 14:53:00,
2013-09-24 10:58:00,59.0,49.2,30.09,West,262,0.0,1.0,70,0.00,,---,0.00,VWS V14.01,2013-09-24 14:58:00,
2013-09-24 11:00:00,59.1,48.6,30.09,NE,53,0.0,1.0,68,0.00,,---,0.00,VWS V14.01,2013-09-24 15:00:00,
2013-09-24 11:03:00,59.4,48.5,30.09,WSW,250,0.0,1.0,67,0.00,,---,0.00,VWS V14.01,2013-09-24 15:03:00,
2013-09-24 11:08:00,59.4,48.8,30.09,SE,142,0.0,1.0,68,0.00,,---,0.00,VWS V14.01,2013-09-24 15:08:00,
2013-09-24 11:10:00,59.4,48.8,30.09,SE,142,0.0,1.0,68,0.00,,---,0.00,VWS V14.01,2013-09-24 15:10:00,
2013-09-24 11:13:00,59.8,50.0,30.09,SW,225,0.0,2.0,70,0.00,,---,0.00,VWS V14.01,2013-09-24 15:13:00,
2013-09-24 11:18:00,60.5,49.9,30.09,SSW,210,0.0,2.0,68,0.00,,---,0.00,VWS V14.01,2013-09-24 15:18:00,
2013-09-24 11:20:00,60.5,49.5,30.09,SSW,203,0.0,2.0,67,0.00,,---,0.00,VWS V14.01,2013-09-24 15:20:00,
2013-09-24 11:23:00,60.1,48.7,30.09,West,259,0.0,3.0,66,0.00,,---,0.00,VWS V14.01,2013-09-24 15:23:00,
2013-09-24 11:28:00,60.6,49.2,30.09,NNW,331,0.0,3.0,66,0.00,,---,0.00,VWS V14.01,2013-09-24 15:28:00,
2013-09-24 11:30:00,60.5,48.7,30.09,NW,322,0.0,3.0,65,0.00,,---,0.00,VWS V14.01,2013-09-24 15:30:00,
2013-09-24 11:33:00,60.2,49.6,30.09,SW,229,0.0,2.0,68,0.00,,---,0.00,VWS V14.01,2013-09-24 15:33:00,
2013-09-24 11:38:00,61.2,49.8,30.08,WSW,240,0.0,2.0,66,0.00,,---,0.00,VWS V14.01,2013-09-24 15:38:00,
2013-09-24 11:40:00,61.3,49.9,30.08,SE,142,0.0,2.0,66,0.00,,---,0.00,VWS V14.01,2013-09-24 15:40:00,
2013-09-24 11:43:00,61.5,50.0,30.08,SE,129,0.0,1.0,66,0.00,,---,0.00,VWS V14.01,2013-09-24 15:43:00,
2013-09-24 11:48:00,62.0,49.7,30.08,WNW,303,0.0,1.0,64,0.00,,---,0.00,VWS V14.01,2013-09-24 15:48:00,
2013-09-24 11:50:00,62.0,49.7,30.08,WNW,303,0.0,1.0,64,0.00,,---,0.00,VWS V14.01,2013-09-24 15:50:00,
2013-09-24 11:53:00,62.2,49.9,30.08,NNW,340,0.0,1.0,64,0.00,,---,0.00,VWS V14.01,2013-09-24 15:53:00,
2013-09-24 11:58:00,62.0,49.3,30.08,North,355,0.0,2.0,63,0.00,,---,0.00,VWS V14.01,2013-09-24 15:58:00,
2013-09-24 12:00:00,62.0,49.7,30.08,SSW,205,0.0,2.0,64,0.00,,---,0.00,VWS V14.01,2013-09-24 16:00:00,
2013-09-24 12:03:00,62.4,50.9,30.08,SSE,158,0.0,1.0,66,0.00,,---,0.00,VWS V14.01,2013-09-24 16:03:00,
2013-09-24 12:08:00,63.4,50.6,30.08,SSE,148,0.0,1.0,63,0.00,,---,0.00,VWS V14.01,2013-09-24 16:08:00,
2013-09-24 12:10:00,63.6,50.4,30.08,SSE,156,0.0,1.0,62,0.00,,---,0.00,VWS V14.01,2013-09-24 16:10:00,
2013-09-24 12:13:00,63.7,50.5,30.07,SW,215,1.0,2.0,62,0.00,,---,0.00,VWS V14.01,2013-09-24 16:13:00,
2013-09-24 12:18:00,63.2,49.5,30.07,SW,215,1.0,4.0,61,0.00,,---,0.00,VWS V14.01,2013-09-24 16:18:00,
2013-09-24 12:20:00,63.2,49.5,30.07,SSW,202,0.0,4.0,61,0.00,,---,0.00,VWS V14.01,2013-09-24 16:20:00,
2013-09-24 12:23:00,63.5,49.8,30.07,SE,134,2.0,2.0,61,0.00,,---,0.00,VWS V14.01,2013-09-24 16:23:00,
2013-09-24 12:28:00,63.8,50.5,30.07,SSE,153,4.0,4.0,62,0.00,,---,0.00,VWS V14.01,2013-09-24 16:28:00,
2013-09-24 12:30:00,63.8,50.5,30.07,SSE,161,2.0,5.0,62,0.00,,---,0.00,VWS V14.01,2013-09-24 16:30:00,
2013-09-24 12:33:00,63.4,50.6,30.06,South,184,2.0,6.0,63,0.00,,---,0.00,VWS V14.01,2013-09-24 16:33:00,
2013-09-24 12:38:00,63.6,49.5,30.06,South,173,0.0,6.0,60,0.00,,---,0.00,VWS V14.01,2013-09-24 16:38:00,
2013-09-24 12:40:00,63.6,49.0,30.06,SSE,159,1.0,6.0,59,0.00,,---,0.00,VWS V14.01,2013-09-24 16:40:00,
2013-09-24 12:43:00,64.1,49.5,30.06,SSW,209,0.0,4.0,59,0.00,,---,0.00,VWS V14.01,2013-09-24 16:43:00,
2013-09-24 12:48:00,64.1,49.0,30.06,SW,225,1.0,4.0,58,0.00,,---,0.00,VWS V14.01,2013-09-24 16:48:00,
2013-09-24 12:50:00,64.1,49.0,30.06,SSW,213,2.0,4.0,58,0.00,,---,0.00,VWS V14.01,2013-09-24 16:50:00,
2013-09-24 12:53:00,64.1,49.0,30.06,NE,49,0.0,3.0,58,0.00,,---,0.00,VWS V14.01,2013-09-24 16:53:00,
2013-09-24 12:58:00,64.0,49.4,30.06,NNE,16,1.0,3.0,59,0.00,,---,0.00,VWS V14.01,2013-09-24 16:58:00,
2013-09-24 13:00:00,63.9,49.3,30.06,NE,38,1.0,3.0,59,0.00,,---,0.00,VWS V14.01,2013-09-24 17:00:00,
2013-09-24 13:03:00,64.2,50.9,30.05,WSW,257,0.0,2.0,62,0.00,,---,0.00,VWS V14.01,2013-09-24 17:03:00,
2013-09-24 13:08:00,65.0,49.9,30.05,ESE,121,0.0,2.0,58,0.00,,---,0.00,VWS V14.01,2013-09-24 17:08:00,
2013-09-24 13:10:00,65.0,49.9,30.05,ESE,121,0.0,2.0,58,0.00,,---,0.00,VWS V14.01,2013-09-24 17:10:00,
2013-09-24 13:13:00,65.7,51.5,30.05,ENE,67,0.0,5.0,60,0.00,,---,0.00,VWS V14.01,2013-09-24 17:13:00,
2013-09-24 13:18:00,65.9,51.6,30.04,ENE,66,0.0,5.0,60,0.00,,---,0.00,VWS V14.01,2013-09-24 17:18:00,
2013-09-24 13:20:00,66.0,50.3,30.04,NW,310,1.0,5.0,57,0.00,,---,0.00,VWS V14.01,2013-09-24 17:20:00,
2013-09-24 13:23:00,65.4,49.3,30.04,NNE,29,2.0,5.0,56,0.00,,---,0.00,VWS V14.01,2013-09-24 17:23:00,
2013-09-24 13:28:00,65.6,50.9,30.03,North,350,2.0,5.0,59,0.00,,---,0.00,VWS V14.01,2013-09-24 17:28:00,
2013-09-24 13:30:00,65.6,50.9,30.03,North,351,1.0,5.0,59,0.00,,---,0.00,VWS V14.01,2013-09-24 17:30:00,
2013-09-24 13:33:00,66.1,50.0,30.03,West,261,0.0,1.0,56,0.00,,---,0.00,VWS V14.01,2013-09-24 17:33:00,
2013-09-24 13:38:00,66.0,50.3,30.03,NNE,26,3.0,5.0,57,0.00,,---,0.00,VWS V14.01,2013-09-24 17:38:00,
2013-09-24 13:40:00,66.0,50.3,30.03,NNW,340,3.0,5.0,57,0.00,,---,0.00,VWS V14.01,2013-09-24 17:40:00,
2013-09-24 13:43:00,65.5,49.9,30.03,NE,40,1.0,5.0,57,0.00,,---,0.00,VWS V14.01,2013-09-24 17:43:00,
2013-09-24 13:48:00,65.7,50.5,30.02,ESE,108,0.0,5.0,58,0.00,,---,0.00,VWS V14.01,2013-09-24 17:48:00,
2013-09-24 13:50:00,65.7,51.5,30.02,East,100,1.0,5.0,60,0.00,,---,0.00,VWS V14.01,2013-09-24 17:50:00,
2013-09-24 13:53:00,66.2,51.0,30.02,NNW,331,1.0,5.0,58,0.00,,---,0.00,VWS V14.01,2013-09-24 17:53:00,
2013-09-24 13:58:00,65.9,51.2,30.02,North,349,0.0,5.0,59,0.00,,---,0.00,VWS V14.01,2013-09-24 17:58:00,
2013-09-24 14:00:00,65.9,51.2,30.02,North,349,0.0,5.0,59,0.00,,---,0.00,VWS V14.01,2013-09-24 18:00:00,
2013-09-24 14:03:00,65.9,50.2,30.02,West,261,0.0,3.0,57,0.00,,---,0.00,VWS V14.01,2013-09-24 18:03:00,
2013-09-24 14:08:00,66.8,52.0,30.02,SSE,163,0.0,3.0,59,0.00,,---,0.00,VWS V14.01,2013-09-24 18:08:00,
2013-09-24 14:10:00,66.9,52.1,30.02,South,180,1.0,3.0,59,0.00,,---,0.00,VWS V14.01,2013-09-24 18:10:00,
2013-09-24 14:13:00,66.8,50.6,30.02,ESE,109,0.0,5.0,56,0.00,,---,0.00,VWS V14.01,2013-09-24 18:13:00,
2013-09-24 14:18:00,66.7,50.5,30.01,SE,142,0.0,5.0,56,0.00,,---,0.00,VWS V14.01,2013-09-24 18:18:00,
2013-09-24 14:20:00,66.7,50.5,30.01,SE,140,0.0,5.0,56,0.00,,---,0.00,VWS V14.01,2013-09-24 18:20:00,
2013-09-24 14:23:00,66.7,51.5,30.01,SSW,198,2.0,5.0,58,0.00,,---,0.00,VWS V14.01,2013-09-24 18:23:00,
2013-09-24 14:28:00,67.3,51.6,30.01,NE,36,0.0,5.0,57,0.00,,---,0.00,VWS V14.01,2013-09-24 18:28:00,
2013-09-24 14:30:00,67.3,51.6,30.01,NE,36,0.0,5.0,57,0.00,,---,0.00,VWS V14.01,2013-09-24 18:30:00,
2013-09-24 14:33:00,67.8,51.5,30.01,NNE,28,0.0,2.0,56,0.00,,---,0.00,VWS V14.01,2013-09-24 18:33:00,
2013-09-24 14:38:00,67.9,53.1,30.01,South,171,2.0,4.0,59,0.00,,---,0.00,VWS V14.01,2013-09-24 18:38:00,
2013-09-24 14:40:00,67.9,53.1,30.01,SE,140,1.0,4.0,59,0.00,,---,0.00,VWS V14.01,2013-09-24 18:40:00,
2013-09-24 14:43:00,68.1,52.3,30.01,SSE,168,1.0,4.0,57,0.00,,---,0.00,VWS V14.01,2013-09-24 18:43:00,
2013-09-24 14:48:00,68.4,52.1,30.00,SSE,160,0.0,5.0,56,0.00,,---,0.00,VWS V14.01,2013-09-24 18:48:00,
2013-09-24 14:50:00,68.4,52.1,30.00,SSE,167,1.0,5.0,56,0.00,,---,0.00,VWS V14.01,2013-09-24 18:50:00,
2013-09-24 14:53:00,68.4,51.6,30.00,ESE,113,0.0,2.0,55,0.00,,---,0.00,VWS V14.01,2013-09-24 18:53:00,
2013-09-24 14:58:00,69.3,52.5,30.00,East,93,0.0,2.0,55,0.00,,---,0.00,VWS V14.01,2013-09-24 18:58:00,
2013-09-24 15:00:00,69.3,52.5,30.00,East,93,0.0,2.0,55,0.00,,---,0.00,VWS V14.01,2013-09-24 19:00:00,
2013-09-24 15:03:00,69.0,50.7,30.00,South,173,0.0,5.0,52,0.00,,---,0.00,VWS V14.01,2013-09-24 19:03:00,
2013-09-24 15:08:00,69.2,51.9,29.99,NNW,335,1.0,6.0,54,0.00,,---,0.00,VWS V14.01,2013-09-24 19:08:00,
2013-09-24 15:10:00,69.2,51.9,29.99,NNW,335,1.0,6.0,54,0.00,,---,0.00,VWS V14.01,2013-09-24 19:10:00,
2013-09-24 15:13:00,68.8,52.0,29.99,ESE,108,0.0,3.0,55,0.00,,---,0.00,VWS V14.01,2013-09-24 19:13:00,
2013-09-24 15:18:00,68.8,52.5,29.99,NNE,22,0.0,3.0,56,0.00,,---,0.00,VWS V14.01,2013-09-24 19:18:00,
2013-09-24 15:20:00,68.8,52.5,29.99,NNE,15,0.0,3.0,56,0.00,,---,0.00,VWS V14.01,2013-09-24 19:20:00,
2013-09-24 15:23:00,69.1,52.8,29.99,WSW,257,0.0,3.0,56,0.00,,---,0.00,VWS V14.01,2013-09-24 19:23:00,
2013-09-24 15:28:00,69.8,52.4,29.99,NNW,340,0.0,3.0,54,0.00,,---,0.00,VWS V14.01,2013-09-24 19:28:00,
2013-09-24 15:30:00,69.8,52.4,29.99,NNW,340,0.0,3.0,54,0.00,,---,0.00,VWS V14.01,2013-09-24 19:30:00,
2013-09-24 15:33:00,69.8,53.4,29.98,WSW,254,0.0,3.0,56,0.00,,---,0.00,VWS V14.01,2013-09-24 19:33:00,
2013-09-24 15:38:00,70.4,53.0,29.98,NNE,27,0.0,0.0,54,0.00,,---,0.00,VWS V14.01,2013-09-24 19:38:00,
2013-09-24 15:40:00,70.4,52.5,29.98,NNE,27,0.0,3.0,53,0.00,,---,0.00,VWS V14.01,2013-09-24 19:40:00,
2013-09-24 15:43:00,70.7,52.2,29.98,SSE,153,0.0,2.0,52,0.00,,---,0.00,VWS V14.01,2013-09-24 19:43:00,
2013-09-24 15:48:00,70.9,52.9,29.98,West,263,0.0,0.0,53,0.00,,---,0.00,VWS V14.01,2013-09-24 19:48:00,
2013-09-24 15:50:00,70.9,52.9,29.98,West,263,0.0,2.0,53,0.00,,---,0.00,VWS V14.01,2013-09-24 19:50:00,
2013-09-24 15:53:00,70.9,52.4,29.98,SE,145,0.0,1.0,52,0.00,,---,0.00,VWS V14.01,2013-09-24 19:53:00,
2013-09-24 15:58:00,71.3,53.3,29.98,West,261,0.0,1.0,53,0.00,,---,0.00,VWS V14.01,2013-09-24 19:58:00,
2013-09-24 16:00:00,71.3,53.3,29.98,West,267,1.0,1.0,53,0.00,,---,0.00,VWS V14.01,2013-09-24 20:00:00,
2013-09-24 16:03:00,70.7,52.2,29.97,NNE,15,0.0,4.0,52,0.00,,---,0.00,VWS V14.01,2013-09-24 20:03:00,
2013-09-24 16:08:00,70.4,53.0,29.97,NW,326,2.0,2.0,54,0.00,,---,0.00,VWS V14.01,2013-09-24 20:08:00,
2013-09-24 16:10:00,70.4,53.0,29.97,WNW,302,0.0,4.0,54,0.00,,---,0.00,VWS V14.01,2013-09-24 20:10:00,
2013-09-24 16:13:00,70.2,52.3,29.97,NNE,24,0.0,2.0,53,0.00,,---,0.00,VWS V14.01,2013-09-24 20:13:00,
2013-09-24 16:18:00,70.1,52.7,29.97,West,276,0.0,0.0,54,0.00,,---,0.00,VWS V14.01,2013-09-24 20:18:00,
2013-09-24 16:20:00,70.1,51.7,29.97,West,276,0.0,4.0,52,0.00,,---,0.00,VWS V14.01,2013-09-24 20:20:00,
2013-09-24 16:23:00,70.1,52.2,29.97,SW,217,0.0,4.0,53,0.00,,---,0.00,VWS V14.01,2013-09-24 20:23:00,
2013-09-24 16:28:00,70.2,52.8,29.97,NNE,15,3.0,4.0,54,0.00,,---,0.00,VWS V14.01,2013-09-24 20:28:00,
2013-09-24 16:30:00,70.3,52.9,29.97,NE,35,4.0,5.0,54,0.00,,---,0.00,VWS V14.01,2013-09-24 20:30:00,
2013-09-24 16:33:00,69.7,52.8,29.97,WSW,244,0.0,4.0,55,0.00,,---,0.00,VWS V14.01,2013-09-24 20:33:00,
2013-09-24 16:38:00,70.0,53.1,29.97,NW,306,2.0,2.0,55,0.00,,---,0.00,VWS V14.01,2013-09-24 20:38:00,
2013-09-24 16:40:00,70.0,53.1,29.97,West,279,1.0,4.0,55,0.00,,---,0.00,VWS V14.01,2013-09-24 20:40:00,
2013-09-24 16:43:00,70.5,53.6,29.97,WNW,286,2.0,2.0,55,0.00,,---,0.00,VWS V14.01,2013-09-24 20:43:00,
2013-09-24 16:48:00,70.5,53.1,29.97,WSW,252,0.0,0.0,54,0.00,,---,0.00,VWS V14.01,2013-09-24 20:48:00,
2013-09-24 16:50:00,70.5,52.6,29.97,WSW,253,0.0,3.0,53,0.00,,---,0.00,VWS V14.01,2013-09-24 20:50:00,
2013-09-24 16:53:00,71.1,52.6,29.96,SW,233,0.0,1.0,52,0.00,,---,0.00,VWS V14.01,2013-09-24 20:53:00,
2013-09-24 16:58:00,71.8,54.3,29.96,NNE,27,1.0,1.0,54,0.00,,---,0.00,VWS V14.01,2013-09-24 20:58:00,
2013-09-24 17:00:00,71.6,54.1,29.96,SW,229,0.0,1.0,54,0.00,,---,0.00,VWS V14.01,2013-09-24 21:00:00,
2013-09-24 17:03:00,71.2,52.7,29.96,NW,320,2.0,4.0,52,0.00,,---,0.00,VWS V14.01,2013-09-24 21:03:00,
2013-09-24 17:08:00,70.5,52.0,29.97,WNW,290,0.0,0.0,52,0.00,,---,0.00,VWS V14.01,2013-09-24 21:08:00,
2013-09-24 17:10:00,70.5,52.0,29.97,WNW,292,0.0,4.0,52,0.00,,---,0.00,VWS V14.01,2013-09-24 21:10:00,
2013-09-24 17:13:00,70.7,52.8,29.96,WNW,303,0.0,1.0,53,0.00,,---,0.00,VWS V14.01,2013-09-24 21:13:00,
2013-09-24 17:19:00,71.2,53.7,29.96,East,96,0.0,0.0,54,0.00,,---,0.00,VWS V14.01,2013-09-24 21:19:00,
2013-09-24 17:20:00,71.2,53.7,29.96,East,94,0.0,2.0,54,0.00,,---,0.00,VWS V14.01,2013-09-24 21:20:00,
2013-09-24 17:24:00,71.4,53.4,29.97,SSE,163,0.0,2.0,53,0.00,,---,0.00,VWS V14.01,2013-09-24 21:24:00,
2013-09-24 17:29:00,71.2,53.2,29.97,NNE,19,1.0,1.0,53,0.00,,---,0.00,VWS V14.01,2013-09-24 21:29:00,
2013-09-24 17:30:00,71.3,52.3,29.97,NNE,24,0.0,2.0,51,0.00,,---,0.00,VWS V14.01,2013-09-24 21:30:00,
2013-09-24 17:34:00,70.7,53.3,29.97,NNW,331,0.0,2.0,54,0.00,,---,0.00,VWS V14.01,2013-09-24 21:34:00,
2013-09-24 17:39:00,70.1,52.7,29.97,WNW,303,0.0,1.0,54,0.00,,---,0.00,VWS V14.01,2013-09-24 21:39:00,
2013-09-24 17:40:00,70.2,52.3,29.97,NW,320,0.0,3.0,53,0.00,,---,0.00,VWS V14.01,2013-09-24 21:40:00,
2013-09-24 17:44:00,70.3,52.9,29.97,NNW,347,0.0,1.0,54,0.00,,---,0.00,VWS V14.01,2013-09-24 21:44:00,
2013-09-24 17:49:00,70.3,52.9,29.97,WSW,246,0.0,0.0,54,0.00,,---,0.00,VWS V14.01,2013-09-24 21:49:00,
2013-09-24 17:50:00,70.2,52.8,29.97,WSW,237,0.0,2.0,54,0.00,,---,0.00,VWS V14.01,2013-09-24 21:50:00,
2013-09-24 17:54:00,70.5,53.1,29.97,NNW,339,0.0,3.0,54,0.00,,---,0.00,VWS V14.01,2013-09-24 21:54:00,
2013-09-24 17:59:00,70.1,52.2,29.97,WNW,292,0.0,1.0,53,0.00,,---,0.00,VWS V14.01,2013-09-24 21:59:00,
2013-09-24 18:00:00,70.2,52.3,29.97,North,351,1.0,3.0,53,0.00,,---,0.00,VWS V14.01,2013-09-24 22:00:00,
2013-09-24 18:04:00,70.0,52.6,29.97,NNW,337,0.0,1.0,54,0.00,,---,0.00,VWS V14.01,2013-09-24 22:04:00,
2013-09-24 18:09:00,69.9,52.5,29.97,North,11,0.0,1.0,54,0.00,,---,0.00,VWS V14.01,2013-09-24 22:09:00,
2013-09-24 18:10:00,69.9,52.5,29.97,NNW,346,1.0,1.0,54,0.00,,---,0.00,VWS V14.01,2013-09-24 22:10:00,
2013-09-24 18:14:00,69.4,53.0,29.97,NNW,341,0.0,3.0,56,0.00,,---,0.00,VWS V14.01,2013-09-24 22:14:00,
2013-09-24 18:19:00,68.7,52.4,29.97,NE,34,3.0,3.0,56,0.00,,---,0.00,VWS V14.01,2013-09-24 22:19:00,
2013-09-24 18:20:00,68.7,52.4,29.97,NNE,28,3.0,3.0,56,0.00,,---,0.00,VWS V14.01,2013-09-24 22:20:00,
2013-09-24 18:24:00,68.0,52.2,29.97,NNE,15,0.0,3.0,57,0.00,,---,0.00,VWS V14.01,2013-09-24 22:24:00,
2013-09-24 18:29:00,67.6,52.3,29.97,NNW,333,0.0,0.0,58,0.00,,---,0.00,VWS V14.01,2013-09-24 22:29:00,
2013-09-24 18:30:00,67.6,51.8,29.97,NNW,333,0.0,3.0,57,0.00,,---,0.00,VWS V14.01,2013-09-24 22:30:00,
2013-09-24 18:34:00,67.3,52.0,29.97,NE,42,0.0,0.0,58,0.00,,---,0.00,VWS V14.01,2013-09-24 22:34:00,
2013-09-24 18:39:00,67.0,53.1,29.97,NNW,331,0.0,0.0,61,0.00,,---,0.00,VWS V14.01,2013-09-24 22:39:00,
2013-09-24 18:40:00,67.0,53.1,29.97,NNW,331,0.0,0.0,61,0.00,,---,0.00,VWS V14.01,2013-09-24 22:40:00,
2013-09-24 18:44:00,66.5,52.7,29.97,NNE,15,0.0,1.0,61,0.00,,---,0.00,VWS V14.01,2013-09-24 22:44:00,
2013-09-24 18:49:00,66.2,52.8,29.97,NW,311,0.0,0.0,62,0.00,,---,0.00,VWS V14.01,2013-09-24 22:49:00,
2013-09-24 18:50:00,66.2,52.4,29.97,NW,311,0.0,1.0,61,0.00,,---,0.00,VWS V14.01,2013-09-24 22:50:00,
2013-09-24 18:54:00,65.8,52.4,29.97,North,5,0.0,0.0,62,0.00,,---,0.00,VWS V14.01,2013-09-24 22:54:00,
2013-09-24 18:59:00,65.5,51.7,29.97,NNW,342,0.0,0.0,61,0.00,,---,0.00,VWS V14.01,2013-09-24 22:59:00,
2013-09-24 19:00:00,65.5,51.7,29.97,NNW,329,0.0,0.0,61,0.00,,---,0.00,VWS V14.01,2013-09-24 23:00:00,
2013-09-24 19:04:00,65.1,51.8,29.97,NNW,337,0.0,0.0,62,0.00,,---,0.00,VWS V14.01,2013-09-24 23:04:00,
2013-09-24 19:09:00,64.6,52.2,29.97,NW,323,1.0,1.0,64,0.00,,---,0.00,VWS V14.01,2013-09-24 23:09:00,
2013-09-24 19:10:00,64.7,52.7,29.97,NW,321,0.0,0.0,65,0.00,,---,0.00,VWS V14.01,2013-09-24 23:10:00,
2013-09-24 19:14:00,64.2,52.2,29.96,NW,326,0.0,1.0,65,0.00,,---,0.00,VWS V14.01,2013-09-24 23:14:00,
2013-09-24 19:19:00,63.8,52.2,29.96,NNW,330,0.0,0.0,66,0.00,,---,0.00,VWS V14.01,2013-09-24 23:19:00,
2013-09-24 19:20:00,63.9,52.3,29.96,NNW,330,0.0,1.0,66,0.00,,---,0.00,VWS V14.01,2013-09-24 23:20:00,
2013-09-24 19:24:00,63.3,52.6,29.96,NW,323,0.0,0.0,68,0.00,,---,0.00,VWS V14.01,2013-09-24 23:24:00,
2013-09-24 19:29:00,62.8,52.1,29.96,NW,323,0.0,0.0,68,0.00,,---,0.00,VWS V14.01,2013-09-24 23:29:00,
2013-09-24 19:30:00,62.9,52.2,29.96,NW,323,0.0,0.0,68,0.00,,---,0.00,VWS V14.01,2013-09-24 23:30:00,
2013-09-24 19:34:00,62.4,52.1,29.96,NW,325,0.0,0.0,69,0.00,,---,0.00,VWS V14.01,2013-09-24 23:34:00,
2013-09-24 19:39:00,61.6,52.9,29.96,NW,323,0.0,0.0,73,0.00,,---,0.00,VWS V14.01,2013-09-24 23:39:00,
2013-09-24 19:40:00,61.7,52.6,29.96,NW,324,0.0,0.0,72,0.00,,---,0.00,VWS V14.01,2013-09-24 23:40:00,
2013-09-24 19:44:00,60.4,53.2,29.96,NW,324,0.0,0.0,77,0.00,,---,0.00,VWS V14.01,2013-09-24 23:44:00,
2013-09-24 19:49:00,59.6,53.1,29.96,NW,325,0.0,0.0,79,0.00,,---,0.00,VWS V14.01,2013-09-24 23:49:00,
2013-09-24 19:50:00,59.7,53.2,29.96,NW,325,0.0,0.0,79,0.00,,---,0.00,VWS V14.01,2013-09-24 23:50:00,
2013-09-24 19:54:00,59.0,52.8,29.95,NW,325,0.0,0.0,80,0.00,,---,0.00,VWS V14.01,2013-09-24 23:54:00,
2013-09-24 19:59:00,58.3,52.5,29.95,NW,324,0.0,0.0,81,0.00,,---,0.00,VWS V14.01,2013-09-24 23:59:00,
2013-09-24 20:00:00,58.4,52.6,29.95,NW,324,0.0,0.0,81,0.00,,---,0.00,VWS V14.01,2013-09-25 00:00:00,
2013-09-24 20:04:00,57.7,52.6,29.95,NW,325,0.0,0.0,83,0.00,,---,0.00,VWS V14.01,2013-09-25 00:04:00,
2013-09-24 20:09:00,57.3,52.5,29.95,NW,325,0.0,0.0,84,0.00,,---,0.00,VWS V14.01,2013-09-25 00:09:00,
2013-09-24 20:10:00,57.3,52.5,29.95,NW,324,0.0,0.0,84,0.00,,---,0.00,VWS V14.01,2013-09-25 00:10:00,
2013-09-24 20:14:00,56.9,52.1,29.95,NW,325,0.0,0.0,84,0.00,,---,0.00,VWS V14.01,2013-09-25 00:14:00,
2013-09-24 20:19:00,56.3,51.9,29.95,NW,323,0.0,0.0,85,0.00,,---,0.00,VWS V14.01,2013-09-25 00:19:00,
2013-09-24 20:20:00,56.3,51.9,29.95,NW,324,0.0,0.0,85,0.00,,---,0.00,VWS V14.01,2013-09-25 00:20:00,
2013-09-24 20:24:00,55.8,51.7,29.95,NW,323,0.0,0.0,86,0.00,,---,0.00,VWS V14.01,2013-09-25 00:24:00,
2013-09-24 20:29:00,55.4,51.6,29.95,NW,323,0.0,0.0,87,0.00,,---,0.00,VWS V14.01,2013-09-25 00:29:00,
2013-09-24 20:30:00,55.4,51.6,29.95,NW,323,0.0,0.0,87,0.00,,---,0.00,VWS V14.01,2013-09-25 00:30:00,
2013-09-24 20:34:00,55.0,51.5,29.95,NW,323,0.0,0.0,88,0.00,,---,0.00,VWS V14.01,2013-09-25 00:34:00,
2013-09-24 20:39:00,54.6,51.1,29.96,NW,323,0.0,0.0,88,0.00,,---,0.00,VWS V14.01,2013-09-25 00:39:00,
2013-09-24 20:40:00,54.6,51.4,29.96,NW,323,0.0,0.0,89,0.00,,---,0.00,VWS V14.01,2013-09-25 00:40:00,
2013-09-24 20:44:00,54.3,51.1,29.96,NW,323,0.0,0.0,89,0.00,,---,0.00,VWS V14.01,2013-09-25 00:44:00,
2013-09-24 20:49:00,54.0,51.1,29.96,NW,323,0.0,0.0,90,0.00,,---,0.00,VWS V14.01,2013-09-25 00:49:00,
2013-09-24 20:50:00,54.0,50.8,29.96,NW,323,0.0,0.0,89,0.00,,---,0.00,VWS V14.01,2013-09-25 00:50:00,
2013-09-24 20:54:00,53.7,50.8,29.96,NW,323,0.0,0.0,90,0.00,,---,0.00,VWS V14.01,2013-09-25 00:54:00,
2013-09-24 20:59:00,53.6,51.0,29.96,NW,323,0.0,0.0,91,0.00,,---,0.00,VWS V14.01,2013-09-25 00:59:00,
2013-09-24 21:00:00,53.7,51.1,29.96,NW,323,0.0,0.0,91,0.00,,---,0.00,VWS V14.01,2013-09-25 01:00:00,
2013-09-24 21:04:00,53.4,50.8,29.96,NW,323,0.0,0.0,91,0.00,,---,0.00,VWS V14.01,2013-09-25 01:04:00,
2013-09-24 21:10:00,53.1,50.5,29.96,NW,323,0.0,0.0,91,0.00,,---,0.00,VWS V14.01,2013-09-25 01:10:00,
2013-09-24 21:15:00,52.7,50.2,29.96,NW,323,0.0,0.0,91,0.00,,---,0.00,VWS V14.01,2013-09-25 01:15:00,
2013-09-24 21:20:00,52.3,50.0,29.96,NW,323,0.0,0.0,92,0.00,,---,0.00,VWS V14.01,2013-09-25 01:20:00,
2013-09-24 21:25:00,52.1,49.8,29.96,NW,323,0.0,0.0,92,0.00,,---,0.00,VWS V14.01,2013-09-25 01:25:00,
2013-09-24 21:30:00,52.0,50.0,29.96,NW,323,0.0,0.0,93,0.00,,---,0.00,VWS V14.01,2013-09-25 01:30:00,
2013-09-24 21:35:00,51.8,49.8,29.96,NW,323,0.0,0.0,93,0.00,,---,0.00,VWS V14.01,2013-09-25 01:35:00,
2013-09-24 21:40:00,51.7,49.8,29.96,NW,323,0.0,0.0,93,0.00,,---,0.00,VWS V14.01,2013-09-25 01:40:00,
2013-09-24 21:45:00,51.4,49.5,29.96,NW,323,0.0,0.0,93,0.00,,---,0.00,VWS V14.01,2013-09-25 01:45:00,
2013-09-24 21:50:00,51.2,49.2,29.96,NW,323,0.0,0.0,93,0.00,,---,0.00,VWS V14.01,2013-09-25 01:50:00,
2013-09-24 21:55:00,51.2,49.5,29.96,NW,323,0.0,0.0,94,0.00,,---,0.00,VWS V14.01,2013-09-25 01:55:00,
2013-09-24 22:00:00,51.0,49.3,29.96,NW,323,0.0,0.0,94,0.00,,---,0.00,VWS V14.01,2013-09-25 02:00:00,
2013-09-24 22:05:00,50.8,49.1,29.96,NW,323,0.0,0.0,94,0.00,,---,0.00,VWS V14.01,2013-09-25 02:05:00,
2013-09-24 22:10:00,50.4,48.5,29.96,NW,323,0.0,0.0,93,0.00,,---,0.00,VWS V14.01,2013-09-25 02:10:00,
2013-09-24 22:15:00,50.2,48.5,29.96,NW,323,0.0,0.0,94,0.00,,---,0.00,VWS V14.01,2013-09-25 02:15:00,
2013-09-24 22:20:00,49.9,48.2,29.97,NW,323,0.0,0.0,94,0.00,,---,0.00,VWS V14.01,2013-09-25 02:20:00,
2013-09-24 22:25:00,50.1,48.7,29.97,NW,323,0.0,0.0,95,0.00,,---,0.00,VWS V14.01,2013-09-25 02:25:00,
2013-09-24 22:30:00,50.1,48.7,29.97,NW,323,0.0,0.0,95,0.00,,---,0.00,VWS V14.01,2013-09-25 02:30:00,
2013-09-24 22:35:00,49.8,48.2,29.97,NW,323,0.0,0.0,94,0.00,,---,0.00,VWS V14.01,2013-09-25 02:35:00,
2013-09-24 22:40:00,49.8,48.4,29.97,NW,323,0.0,0.0,95,0.00,,---,0.00,VWS V14.01,2013-09-25 02:40:00,
2013-09-24 22:45:00,49.9,48.5,29.96,NW,323,0.0,0.0,95,0.00,,---,0.00,VWS V14.01,2013-09-25 02:45:00,
2013-09-24 22:50:00,50.1,48.7,29.96,NW,323,0.0,0.0,95,0.00,,---,0.00,VWS V14.01,2013-09-25 02:50:00,
2013-09-24 22:55:00,49.8,48.4,29.96,NW,323,0.0,0.0,95,0.00,,---,0.00,VWS V14.01,2013-09-25 02:55:00,
2013-09-24 23:00:00,49.7,48.3,29.96,NW,323,0.0,0.0,95,0.00,,---,0.00,VWS V14.01,2013-09-25 03:00:00,
2013-09-24 23:05:00,49.5,48.1,29.96,NW,323,0.0,0.0,95,0.00,,---,0.00,VWS V14.01,2013-09-25 03:05:00,
2013-09-24 23:10:00,49.2,47.5,29.96,NW,323,0.0,0.0,94,0.00,,---,0.00,VWS V14.01,2013-09-25 03:10:00,
2013-09-24 23:15:00,49.0,47.6,29.96,NW,323,0.0,0.0,95,0.00,,---,0.00,VWS V14.01,2013-09-25 03:15:00,
2013-09-24 23:20:00,49.0,47.6,29.96,NW,323,0.0,0.0,95,0.00,,---,0.00,VWS V14.01,2013-09-25 03:20:00,
2013-09-24 23:25:00,49.2,47.8,29.96,NW,323,0.0,0.0,95,0.00,,---,0.00,VWS V14.01,2013-09-25 03:25:00,
2013-09-24 23:30:00,50.1,48.7,29.97,NW,323,0.0,0.0,95,0.00,,---,0.00,VWS V14.01,2013-09-25 03:30:00,
2013-09-24 23:40:00,49.8,48.4,29.97,NW,323,0.0,0.0,95,0.00,,---,0.00,VWS V14.01,2013-09-25 03:40:00,
2013-09-24 23:50:00,50.1,48.7,29.96,NW,323,0.0,0.0,95,0.00,,---,0.00,VWS V14.01,2013-09-25 03:50:00,